Pella, IA (50219)

10:07 AM CDT on August 26, 2016 (GMT -0500)
Oakwood Estates | | Change Station

Elev 876 ft 41.41 °N, 92.92 °W | Updated 25 seconds ago

Scattered Clouds
Scattered Clouds
65.3 °F
Feels Like 65.3 °F
N
2.2
Wind Variable Wind from ESE

Today
High -- | Low -- °F
--% Chance of Precip.
Yesterday
High -- | Low -- °F
Precip. -- in
Pressure 30.21 in
Visibility 10.0 miles
Clouds Scattered Clouds 9500 ft
Dew Point 63 °F
Humidity 91%
Rainfall 0.07 in
Snow Depth Not available.
6:32 AM 7:53 PM
Waning Crescent, 34% visible
METAR KPEA 261315Z AUTO 00000KT 10SM SCT095 17/17 A3021 RMK AO2 T01710165
Pressure 30.21 in
Visibility 10.0 miles
Clouds Scattered Clouds 9500 ft
Dew Point 63 °F
Humidity 91%
Rainfall 0.07 in
Snow Depth Not available.
6:32 AM 7:53 PM
Waning Crescent, 34% visible
METAR KPEA 261315Z AUTO 00000KT 10SM SCT095 17/17 A3021 RMK AO2 T01710165

10-Day Weather Forecast

Almanac

Astronomy

Aug. 26, 2016 Rise Set
Actual Time
Civil Twilight
Nautical Twilight
Astronomical Twilight
Moon
Length of Visible Light
Length of Day
Tomorrow will be .
, % of the Moon is Illuminated

Today's Extremes

State Highs State Lows

Community

WunderPhotos

Upload Photos

1,935,097 photos uploaded!

WunderBlog® & News

Nearby

Air Quality

  Air Quality AQ Index Pollutant
Not available.

Snow Depth

Station Depth Elevation

Earthquake Activity

City Distance Mag. Time & Date
Minimum magnitude displayed is 2.5.

Coastal Water Temperatures

Place Temperature

Stations

Nearby Weather Stations

Station Location Temp. Windchill Dew Point Humidity Wind Precip. Elev Updated Type
                   

Watches & Warnings

There are currently no watches in effect.